sensor_id;sensor_type;location;lat;lon;timestamp;pressure;altitude;pressure_sealevel;temperature;humidity
71778;BME280;59609;52.430;4.668;2023-05-21T00:00:59;102029.06;;;12.99;100.00
71778;BME280;59609;52.430;4.668;2023-05-21T00:03:25;102027.75;;;13.03;100.00
71778;BME280;59609;52.430;4.668;2023-05-21T00:05:53;102018.44;;;12.95;100.00
71778;BME280;59609;52.430;4.668;2023-05-21T00:08:19;102026.16;;;13.01;100.00
71778;BME280;59609;52.430;4.668;2023-05-21T00:10:44;102015.84;;;12.93;100.00
71778;BME280;59609;52.430;4.668;2023-05-21T00:13:10;102015.38;;;12.98;100.00
71778;BME280;59609;52.430;4.668;2023-05-21T00:15:35;102012.22;;;12.93;100.00
71778;BME280;59609;52.430;4.668;2023-05-21T00:18:01;102010.47;;;12.91;100.00
71778;BME280;59609;52.430;4.668;2023-05-21T00:20:27;102017.44;;;12.96;100.00
71778;BME280;59609;52.430;4.668;2023-05-21T00:22:56;102013.16;;;13.01;100.00
71778;BME280;59609;52.430;4.668;2023-05-21T00:25:22;102014.47;;;13.07;100.00
71778;BME280;59609;52.430;4.668;2023-05-21T00:27:47;102019.41;;;13.13;100.00
71778;BME280;59609;52.430;4.668;2023-05-21T00:30:13;102014.13;;;13.19;100.00
71778;BME280;59609;52.430;4.668;2023-05-21T00:32:39;102018.16;;;13.25;100.00
71778;BME280;59609;52.430;4.668;2023-05-21T00:35:05;101998.16;;;13.31;100.00
71778;BME280;59609;52.430;4.668;2023-05-21T00:37:31;101998.25;;;13.39;100.00
71778;BME280;59609;52.430;4.668;2023-05-21T00:40:04;102001.69;;;13.51;100.00
71778;BME280;59609;52.430;4.668;2023-05-21T00:42:32;102006.03;;;13.53;100.00
71778;BME280;59609;52.430;4.668;2023-05-21T00:45:04;102002.22;;;13.54;100.00
71778;BME280;59609;52.430;4.668;2023-05-21T00:47:30;102005.06;;;13.62;100.00
71778;BME280;59609;52.430;4.668;2023-05-21T00:49:55;101998.19;;;13.66;100.00
71778;BME280;59609;52.430;4.668;2023-05-21T00:52:21;101989.25;;;13.72;100.00
71778;BME280;59609;52.430;4.668;2023-05-21T00:54:51;101987.50;;;13.71;100.00
71778;BME280;59609;52.430;4.668;2023-05-21T00:57:18;101995.41;;;13.84;100.00
71778;BME280;59609;52.430;4.668;2023-05-21T00:59:49;101980.28;;;13.78;100.00
71778;BME280;59609;52.430;4.668;2023-05-21T01:02:15;101983.69;;;13.90;100.00
71778;BME280;59609;52.430;4.668;2023-05-21T01:04:43;101981.13;;;13.97;100.00
71778;BME280;59609;52.430;4.668;2023-05-21T01:07:09;101978.75;;;14.02;100.00
71778;BME280;59609;52.430;4.668;2023-05-21T01:09:34;101976.69;;;14.04;100.00
71778;BME280;59609;52.430;4.668;2023-05-21T01:12:00;101974.28;;;14.09;100.00
71778;BME280;59609;52.430;4.668;2023-05-21T01:14:25;101983.63;;;14.08;100.00
71778;BME280;59609;52.430;4.668;2023-05-21T01:16:51;101969.63;;;14.09;100.00
71778;BME280;59609;52.430;4.668;2023-05-21T01:19:21;101982.69;;;14.17;100.00
71778;BME280;59609;52.430;4.668;2023-05-21T01:21:56;101978.16;;;14.16;100.00
71778;BME280;59609;52.430;4.668;2023-05-21T01:24:24;101979.03;;;14.16;100.00
71778;BME280;59609;52.430;4.668;2023-05-21T01:26:50;101974.91;;;14.20;100.00
71778;BME280;59609;52.430;4.668;2023-05-21T01:29:16;101981.16;;;14.22;100.00
71778;BME280;59609;52.430;4.668;2023-05-21T01:34:41;101973.78;;;14.31;100.00
71778;BME280;59609;52.430;4.668;2023-05-21T01:37:22;101966.88;;;14.35;100.00
71778;BME280;59609;52.430;4.668;2023-05-21T01:39:55;101971.69;;;14.33;100.00
71778;BME280;59609;52.430;4.668;2023-05-21T01:42:22;101961.50;;;14.33;100.00
71778;BME280;59609;52.430;4.668;2023-05-21T01:44:51;101970.81;;;14.32;100.00
71778;BME280;59609;52.430;4.668;2023-05-21T01:47:22;101971.84;;;14.31;100.00
71778;BME280;59609;52.430;4.668;2023-05-21T01:49:49;101973.16;;;14.37;100.00
71778;BME280;59609;52.430;4.668;2023-05-21T01:52:14;101962.41;;;14.42;100.00
71778;BME280;59609;52.430;4.668;2023-05-21T01:54:40;101959.31;;;14.45;100.00
71778;BME280;59609;52.430;4.668;2023-05-21T01:57:05;101962.84;;;14.55;100.00
71778;BME280;59609;52.430;4.668;2023-05-21T01:59:31;101971.66;;;14.51;100.00
71778;BME280;59609;52.430;4.668;2023-05-21T02:01:57;101966.75;;;14.44;100.00
71778;BME280;59609;52.430;4.668;2023-05-21T02:04:22;101972.22;;;14.54;100.00
71778;BME280;59609;52.430;4.668;2023-05-21T02:06:48;101974.66;;;14.57;100.00
71778;BME280;59609;52.430;4.668;2023-05-21T02:09:13;101971.34;;;14.54;100.00
71778;BME280;59609;52.430;4.668;2023-05-21T02:11:38;101968.56;;;14.54;100.00
71778;BME280;59609;52.430;4.668;2023-05-21T02:14:04;101958.66;;;14.51;100.00
71778;BME280;59609;52.430;4.668;2023-05-21T02:16:29;101976.38;;;14.58;100.00
71778;BME280;59609;52.430;4.668;2023-05-21T02:18:54;101972.41;;;14.61;100.00
71778;BME280;59609;52.430;4.668;2023-05-21T02:21:22;101965.44;;;14.57;100.00
71778;BME280;59609;52.430;4.668;2023-05-21T02:23:47;101962.56;;;14.66;100.00
71778;BME280;59609;52.430;4.668;2023-05-21T02:26:13;101976.25;;;14.68;100.00
71778;BME280;59609;52.430;4.668;2023-05-21T02:28:38;101967.91;;;14.68;100.00
71778;BME280;59609;52.430;4.668;2023-05-21T02:31:04;101963.22;;;14.60;100.00
71778;BME280;59609;52.430;4.668;2023-05-21T02:33:30;101976.13;;;14.77;100.00
71778;BME280;59609;52.430;4.668;2023-05-21T02:35:55;101976.47;;;14.74;100.00
71778;BME280;59609;52.430;4.668;2023-05-21T02:38:20;101972.31;;;14.78;100.00
71778;BME280;59609;52.430;4.668;2023-05-21T02:40:48;101965.88;;;14.70;100.00
71778;BME280;59609;52.430;4.668;2023-05-21T02:43:14;101962.97;;;14.79;100.00
71778;BME280;59609;52.430;4.668;2023-05-21T02:45:40;101964.84;;;14.71;100.00
71778;BME280;59609;52.430;4.668;2023-05-21T02:48:05;101966.41;;;14.81;100.00
71778;BME280;59609;52.430;4.668;2023-05-21T02:50:30;101970.59;;;14.85;100.00
71778;BME280;59609;52.430;4.668;2023-05-21T02:52:56;101963.97;;;14.78;100.00
71778;BME280;59609;52.430;4.668;2023-05-21T02:55:23;101969.56;;;14.86;100.00
71778;BME280;59609;52.430;4.668;2023-05-21T02:57:49;101975.13;;;14.86;100.00
71778;BME280;59609;52.430;4.668;2023-05-21T03:00:14;101957.25;;;14.81;100.00
71778;BME280;59609;52.430;4.668;2023-05-21T03:02:41;101969.72;;;14.85;100.00
71778;BME280;59609;52.430;4.668;2023-05-21T03:05:06;101965.78;;;14.87;100.00
71778;BME280;59609;52.430;4.668;2023-05-21T03:07:32;101959.16;;;14.80;100.00
71778;BME280;59609;52.430;4.668;2023-05-21T03:09:57;101960.38;;;14.86;99.99
71778;BME280;59609;52.430;4.668;2023-05-21T03:12:22;101964.84;;;14.79;100.00
71778;BME280;59609;52.430;4.668;2023-05-21T03:14:48;101961.06;;;14.88;99.49
71778;BME280;59609;52.430;4.668;2023-05-21T03:17:15;101954.97;;;14.84;99.65
71778;BME280;59609;52.430;4.668;2023-05-21T03:19:41;101957.13;;;14.90;99.18
71778;BME280;59609;52.430;4.668;2023-05-21T03:22:08;101959.56;;;14.93;99.11
71778;BME280;59609;52.430;4.668;2023-05-21T03:24:33;101953.28;;;14.91;99.12
71778;BME280;59609;52.430;4.668;2023-05-21T03:26:59;101948.94;;;14.89;99.32
71778;BME280;59609;52.430;4.668;2023-05-21T03:29:27;101949.81;;;14.89;99.17
71778;BME280;59609;52.430;4.668;2023-05-21T03:31:53;101954.97;;;14.84;99.23
71778;BME280;59609;52.430;4.668;2023-05-21T03:34:19;101943.88;;;14.84;99.31
71778;BME280;59609;52.430;4.668;2023-05-21T03:36:45;101945.28;;;14.88;98.83
71778;BME280;59609;52.430;4.668;2023-05-21T03:39:10;101952.25;;;14.92;98.96
71778;BME280;59609;52.430;4.668;2023-05-21T03:41:36;101944.13;;;14.91;99.03
71778;BME280;59609;52.430;4.668;2023-05-21T03:44:02;101947.38;;;14.94;98.85
71778;BME280;59609;52.430;4.668;2023-05-21T03:46:27;101945.28;;;14.80;99.02
71778;BME280;59609;52.430;4.668;2023-05-21T03:48:52;101950.34;;;14.93;99.10
71778;BME280;59609;52.430;4.668;2023-05-21T03:51:18;101948.13;;;14.97;99.02
71778;BME280;59609;52.430;4.668;2023-05-21T03:53:44;101954.00;;;14.93;98.62
71778;BME280;59609;52.430;4.668;2023-05-21T03:56:10;101936.97;;;14.88;98.29
71778;BME280;59609;52.430;4.668;2023-05-21T03:58:35;101952.78;;;14.96;98.85
71778;BME280;59609;52.430;4.668;2023-05-21T04:01:01;101950.16;;;14.94;98.99
71778;BME280;59609;52.430;4.668;2023-05-21T04:03:27;101949.00;;;15.05;98.49
71778;BME280;59609;52.430;4.668;2023-05-21T04:05:52;101950.06;;;15.04;98.63
71778;BME280;59609;52.430;4.668;2023-05-21T04:08:18;101943.59;;;14.95;98.96
71778;BME280;59609;52.430;4.668;2023-05-21T04:10:43;101942.91;;;14.93;98.42
71778;BME280;59609;52.430;4.668;2023-05-21T04:13:10;101947.25;;;14.96;99.19
71778;BME280;59609;52.430;4.668;2023-05-21T04:15:35;101961.25;;;14.94;99.59
71778;BME280;59609;52.430;4.668;2023-05-21T04:18:02;101949.13;;;14.95;99.29
71778;BME280;59609;52.430;4.668;2023-05-21T04:20:28;101959.75;;;15.00;99.42
71778;BME280;59609;52.430;4.668;2023-05-21T04:22:54;101961.31;;;15.03;99.16
71778;BME280;59609;52.430;4.668;2023-05-21T04:25:19;101951.59;;;15.07;99.31
71778;BME280;59609;52.430;4.668;2023-05-21T04:27:47;101959.03;;;14.98;98.98
71778;BME280;59609;52.430;4.668;2023-05-21T04:30:12;101952.84;;;15.12;98.44
71778;BME280;59609;52.430;4.668;2023-05-21T04:32:38;101949.38;;;15.10;98.47
71778;BME280;59609;52.430;4.668;2023-05-21T04:35:03;101951.81;;;15.13;98.58
71778;BME280;59609;52.430;4.668;2023-05-21T04:37:29;101951.97;;;15.12;98.29
71778;BME280;59609;52.430;4.668;2023-05-21T04:39:56;101953.69;;;15.13;97.84
71778;BME280;59609;52.430;4.668;2023-05-21T04:42:22;101956.31;;;15.14;98.15
71778;BME280;59609;52.430;4.668;2023-05-21T04:44:49;101967.63;;;15.21;98.03
71778;BME280;59609;52.430;4.668;2023-05-21T04:47:15;101976.25;;;15.18;97.45
71778;BME280;59609;52.430;4.668;2023-05-21T04:49:40;101970.91;;;15.16;97.89
71778;BME280;59609;52.430;4.668;2023-05-21T04:52:06;101965.16;;;15.18;97.99
71778;BME280;59609;52.430;4.668;2023-05-21T04:54:32;101967.81;;;15.27;97.99
71778;BME280;59609;52.430;4.668;2023-05-21T04:56:57;101961.00;;;15.22;97.56
71778;BME280;59609;52.430;4.668;2023-05-21T04:59:23;101967.81;;;15.27;97.42
71778;BME280;59609;52.430;4.668;2023-05-21T05:01:48;101962.25;;;15.27;97.46
71778;BME280;59609;52.430;4.668;2023-05-21T05:04:13;101957.03;;;15.24;97.62
71778;BME280;59609;52.430;4.668;2023-05-21T05:06:39;101953.75;;;15.29;97.21
71778;BME280;59609;52.430;4.668;2023-05-21T05:09:04;101952.34;;;15.25;97.50
71778;BME280;59609;52.430;4.668;2023-05-21T05:11:30;101956.88;;;15.34;97.26
71778;BME280;59609;52.430;4.668;2023-05-21T05:13:55;101944.72;;;15.35;96.86
71778;BME280;59609;52.430;4.668;2023-05-21T05:16:21;101947.34;;;15.44;96.49
71778;BME280;59609;52.430;4.668;2023-05-21T05:18:52;101936.06;;;15.46;95.69
71778;BME280;59609;52.430;4.668;2023-05-21T05:21:19;101948.56;;;15.34;96.91
71778;BME280;59609;52.430;4.668;2023-05-21T05:23:44;101942.84;;;15.43;96.48
71778;BME280;59609;52.430;4.668;2023-05-21T05:26:10;101939.59;;;15.56;96.74
71778;BME280;59609;52.430;4.668;2023-05-21T05:28:35;101937.66;;;15.49;96.13
71778;BME280;59609;52.430;4.668;2023-05-21T05:31:00;101930.03;;;15.59;95.97
71778;BME280;59609;52.430;4.668;2023-05-21T05:33:26;101937.84;;;15.71;95.20
71778;BME280;59609;52.430;4.668;2023-05-21T05:35:51;101932.13;;;15.57;95.52
71778;BME280;59609;52.430;4.668;2023-05-21T05:38:17;101924.66;;;15.57;95.59
71778;BME280;59609;52.430;4.668;2023-05-21T05:40:42;101940.63;;;15.71;95.69
71778;BME280;59609;52.430;4.668;2023-05-21T05:43:08;101935.75;;;15.81;95.32
71778;BME280;59609;52.430;4.668;2023-05-21T05:45:33;101928.81;;;15.69;95.15
71778;BME280;59609;52.430;4.668;2023-05-21T05:47:58;101926.88;;;15.78;95.78
71778;BME280;59609;52.430;4.668;2023-05-21T05:50:24;101933.66;;;15.91;94.57
71778;BME280;59609;52.430;4.668;2023-05-21T05:52:49;101924.78;;;15.88;94.37
71778;BME280;59609;52.430;4.668;2023-05-21T05:55:15;101936.09;;;15.94;94.49
71778;BME280;59609;52.430;4.668;2023-05-21T05:57:41;101928.78;;;16.10;92.79
71778;BME280;59609;52.430;4.668;2023-05-21T06:00:06;101933.22;;;16.35;92.40
71778;BME280;59609;52.430;4.668;2023-05-21T06:02:34;101926.63;;;16.44;91.06
71778;BME280;59609;52.430;4.668;2023-05-21T06:05:01;101928.63;;;16.74;90.13
71778;BME280;59609;52.430;4.668;2023-05-21T06:07:26;101929.09;;;16.86;88.85
71778;BME280;59609;52.430;4.668;2023-05-21T06:09:52;101915.91;;;17.11;88.51
71778;BME280;59609;52.430;4.668;2023-05-21T06:12:17;101919.06;;;17.08;87.58
71778;BME280;59609;52.430;4.668;2023-05-21T06:14:43;101915.78;;;17.27;86.77
71778;BME280;59609;52.430;4.668;2023-05-21T06:17:10;101927.38;;;17.38;86.88
71778;BME280;59609;52.430;4.668;2023-05-21T06:19:35;101924.31;;;17.25;86.72
71778;BME280;59609;52.430;4.668;2023-05-21T06:22:00;101922.75;;;17.54;85.62
71778;BME280;59609;52.430;4.668;2023-05-21T06:24:26;101924.38;;;17.71;84.93
71778;BME280;59609;52.430;4.668;2023-05-21T06:26:51;101928.81;;;18.17;83.23
71778;BME280;59609;52.430;4.668;2023-05-21T06:29:16;101934.50;;;18.24;81.88
71778;BME280;59609;52.430;4.668;2023-05-21T06:31:42;101934.00;;;18.35;82.62
71778;BME280;59609;52.430;4.668;2023-05-21T06:34:08;101938.38;;;18.37;81.44
71778;BME280;59609;52.430;4.668;2023-05-21T06:36:35;101936.00;;;18.64;81.32
71778;BME280;59609;52.430;4.668;2023-05-21T06:39:01;101942.69;;;18.40;82.90
71778;BME280;59609;52.430;4.668;2023-05-21T06:41:27;101940.09;;;18.38;81.44
71778;BME280;59609;52.430;4.668;2023-05-21T06:43:53;101953.81;;;18.63;81.15
71778;BME280;59609;52.430;4.668;2023-05-21T06:46:18;101942.84;;;18.61;81.69
71778;BME280;59609;52.430;4.668;2023-05-21T06:48:44;101954.25;;;18.37;81.31
71778;BME280;59609;52.430;4.668;2023-05-21T06:51:10;101950.91;;;18.56;80.52
71778;BME280;59609;52.430;4.668;2023-05-21T06:53:36;101948.78;;;18.58;80.18
71778;BME280;59609;52.430;4.668;2023-05-21T06:56:01;101953.94;;;18.32;82.25
71778;BME280;59609;52.430;4.668;2023-05-21T06:58:27;101955.50;;;18.34;82.53
71778;BME280;59609;52.430;4.668;2023-05-21T07:00:56;101955.56;;;18.26;82.28
71778;BME280;59609;52.430;4.668;2023-05-21T07:03:21;101949.63;;;18.44;81.69
71778;BME280;59609;52.430;4.668;2023-05-21T07:05:46;101956.50;;;18.19;81.70
71778;BME280;59609;52.430;4.668;2023-05-21T07:08:12;101945.28;;;18.27;81.98
71778;BME280;59609;52.430;4.668;2023-05-21T07:10:37;101951.69;;;18.13;81.91
71778;BME280;59609;52.430;4.668;2023-05-21T07:13:03;101953.44;;;18.14;82.15
71778;BME280;59609;52.430;4.668;2023-05-21T07:15:28;101945.56;;;18.17;82.08
71778;BME280;59609;52.430;4.668;2023-05-21T07:17:53;101946.25;;;18.34;81.24
71778;BME280;59609;52.430;4.668;2023-05-21T07:20:19;101945.75;;;18.45;80.96
71778;BME280;59609;52.430;4.668;2023-05-21T07:22:44;101950.84;;;18.41;81.34
71778;BME280;59609;52.430;4.668;2023-05-21T07:25:10;101957.94;;;18.67;81.95
71778;BME280;59609;52.430;4.668;2023-05-21T07:27:35;101956.59;;;18.63;80.49
71778;BME280;59609;52.430;4.668;2023-05-21T07:30:01;101949.75;;;18.94;79.16
71778;BME280;59609;52.430;4.668;2023-05-21T07:32:26;101957.66;;;18.76;80.73
71778;BME280;59609;52.430;4.668;2023-05-21T07:34:53;101959.28;;;18.85;79.58
71778;BME280;59609;52.430;4.668;2023-05-21T07:37:19;101961.94;;;19.08;79.60
71778;BME280;59609;52.430;4.668;2023-05-21T07:39:45;101957.81;;;19.04;79.18
71778;BME280;59609;52.430;4.668;2023-05-21T07:42:10;101951.31;;;19.18;78.95
71778;BME280;59609;52.430;4.668;2023-05-21T07:44:35;101958.47;;;19.21;78.62
71778;BME280;59609;52.430;4.668;2023-05-21T07:47:01;101954.81;;;19.06;78.41
71778;BME280;59609;52.430;4.668;2023-05-21T07:49:26;101961.22;;;18.70;78.81
71778;BME280;59609;52.430;4.668;2023-05-21T07:51:52;101961.22;;;18.70;78.14
71778;BME280;59609;52.430;4.668;2023-05-21T07:54:17;101958.81;;;18.52;79.08
71778;BME280;59609;52.430;4.668;2023-05-21T07:56:43;101960.22;;;18.34;79.56
71778;BME280;59609;52.430;4.668;2023-05-21T07:59:09;101971.50;;;18.55;79.24
71778;BME280;59609;52.430;4.668;2023-05-21T08:01:34;101963.72;;;18.65;78.27
71778;BME280;59609;52.430;4.668;2023-05-21T08:04:01;101958.63;;;18.83;76.59
71778;BME280;59609;52.430;4.668;2023-05-21T08:06:31;101959.41;;;18.77;76.72
71778;BME280;59609;52.430;4.668;2023-05-21T08:09:00;101962.06;;;19.00;76.55
71778;BME280;59609;52.430;4.668;2023-05-21T08:11:26;101951.69;;;19.30;76.58
71778;BME280;59609;52.430;4.668;2023-05-21T08:13:52;101962.94;;;19.36;75.69
71778;BME280;59609;52.430;4.668;2023-05-21T08:16:17;101961.84;;;19.52;73.80
71778;BME280;59609;52.430;4.668;2023-05-21T08:18:43;101965.00;;;19.64;74.52
71778;BME280;59609;52.430;4.668;2023-05-21T08:21:08;101959.41;;;19.64;73.13
71778;BME280;59609;52.430;4.668;2023-05-21T08:23:34;101958.72;;;19.62;73.01
71778;BME280;59609;52.430;4.668;2023-05-21T08:25:59;101964.00;;;19.50;73.64
71778;BME280;59609;52.430;4.668;2023-05-21T08:28:25;101952.94;;;19.63;74.89
71778;BME280;59609;52.430;4.668;2023-05-21T08:31:15;101959.09;;;19.37;75.15
71778;BME280;59609;52.430;4.668;2023-05-21T08:33:51;101960.81;;;19.74;73.32
71778;BME280;59609;52.430;4.668;2023-05-21T08:36:17;101967.19;;;19.89;72.25
71778;BME280;59609;52.430;4.668;2023-05-21T08:38:43;101962.28;;;19.91;73.68
71778;BME280;59609;52.430;4.668;2023-05-21T08:41:10;101958.06;;;20.02;73.28
71778;BME280;59609;52.430;4.668;2023-05-21T08:43:36;101958.81;;;19.89;72.38
71778;BME280;59609;52.430;4.668;2023-05-21T08:46:03;101955.81;;;20.40;71.33
71778;BME280;59609;52.430;4.668;2023-05-21T08:48:30;101964.13;;;20.27;71.08
71778;BME280;59609;52.430;4.668;2023-05-21T08:50:55;101958.66;;;20.74;69.66
71778;BME280;59609;52.430;4.668;2023-05-21T08:53:22;101961.16;;;20.63;68.24
71778;BME280;59609;52.430;4.668;2023-05-21T08:55:50;101960.25;;;20.90;67.79
71778;BME280;59609;52.430;4.668;2023-05-21T08:58:17;101956.00;;;20.66;66.89
71778;BME280;59609;52.430;4.668;2023-05-21T09:00:42;101948.97;;;21.11;66.06
71778;BME280;59609;52.430;4.668;2023-05-21T09:03:09;101956.06;;;20.45;66.58
71778;BME280;59609;52.430;4.668;2023-05-21T09:05:39;101952.41;;;21.13;66.20
71778;BME280;59609;52.430;4.668;2023-05-21T09:08:05;101944.41;;;21.10;63.94
71778;BME280;59609;52.430;4.668;2023-05-21T09:10:36;101953.53;;;21.25;63.72
71778;BME280;59609;52.430;4.668;2023-05-21T09:13:02;101946.16;;;21.11;63.93
71778;BME280;59609;52.430;4.668;2023-05-21T09:15:28;101943.09;;;21.73;63.96
71778;BME280;59609;52.430;4.668;2023-05-21T09:17:54;101944.41;;;21.10;62.59
71778;BME280;59609;52.430;4.668;2023-05-21T09:20:23;101953.41;;;21.05;62.94
71778;BME280;59609;52.430;4.668;2023-05-21T09:22:51;101948.50;;;21.68;60.03
71778;BME280;59609;52.430;4.668;2023-05-21T09:25:24;101936.59;;;21.73;61.26
71778;BME280;59609;52.430;4.668;2023-05-21T09:27:52;101945.63;;;21.48;59.93
71778;BME280;59609;52.430;4.668;2023-05-21T09:30:17;101932.88;;;21.46;61.11
71778;BME280;59609;52.430;4.668;2023-05-21T09:32:44;101927.16;;;21.93;60.76
71778;BME280;59609;52.430;4.668;2023-05-21T09:35:11;101930.81;;;22.46;59.44
71778;BME280;59609;52.430;4.668;2023-05-21T09:37:41;101929.53;;;22.10;58.87
71778;BME280;59609;52.430;4.668;2023-05-21T09:42:52;101935.16;;;22.23;57.68
71778;BME280;59609;52.430;4.668;2023-05-21T09:47:45;101923.00;;;22.62;57.57
71778;BME280;59609;52.430;4.668;2023-05-21T09:50:37;101939.59;;;22.89;57.19
71778;BME280;59609;52.430;4.668;2023-05-21T09:53:10;101935.34;;;22.67;57.40
71778;BME280;59609;52.430;4.668;2023-05-21T09:55:36;101931.03;;;23.16;56.65
71778;BME280;59609;52.430;4.668;2023-05-21T09:58:02;101926.34;;;23.54;55.40
71778;BME280;59609;52.430;4.668;2023-05-21T10:00:29;101928.78;;;23.44;54.05
71778;BME280;59609;52.430;4.668;2023-05-21T10:03:00;101921.47;;;23.30;54.46
71778;BME280;59609;52.430;4.668;2023-05-21T10:05:27;101922.38;;;23.24;55.00
71778;BME280;59609;52.430;4.668;2023-05-21T10:07:59;101919.69;;;23.42;53.71
71778;BME280;59609;52.430;4.668;2023-05-21T10:10:27;101922.88;;;23.52;53.52
71778;BME280;59609;52.430;4.668;2023-05-21T10:12:56;101928.88;;;23.93;51.36
71778;BME280;59609;52.430;4.668;2023-05-21T10:15:23;101931.59;;;23.75;53.57
71778;BME280;59609;52.430;4.668;2023-05-21T10:17:50;101930.97;;;24.04;52.94
71778;BME280;59609;52.430;4.668;2023-05-21T10:20:16;101917.09;;;24.03;52.72
71778;BME280;59609;52.430;4.668;2023-05-21T10:22:42;101901.50;;;23.76;53.22
71778;BME280;59609;52.430;4.668;2023-05-21T10:25:08;101907.63;;;23.66;52.06
71778;BME280;59609;52.430;4.668;2023-05-21T10:27:35;101911.03;;;24.31;51.12
71778;BME280;59609;52.430;4.668;2023-05-21T10:30:01;101914.44;;;23.83;51.66
71778;BME280;59609;52.430;4.668;2023-05-21T10:32:26;101907.78;;;23.40;51.39
71778;BME280;59609;52.430;4.668;2023-05-21T10:34:55;101904.25;;;23.57;52.20
71778;BME280;59609;52.430;4.668;2023-05-21T10:37:25;101905.53;;;24.18;50.97
71778;BME280;59609;52.430;4.668;2023-05-21T10:39:52;101898.69;;;24.50;51.24
71778;BME280;59609;52.430;4.668;2023-05-21T10:48:14;101878.59;;;24.83;48.65
71778;BME280;59609;52.430;4.668;2023-05-21T10:53:32;101885.28;;;25.66;46.96
71778;BME280;59609;52.430;4.668;2023-05-21T11:01:02;101888.84;;;25.73;48.39
71778;BME280;59609;52.430;4.668;2023-05-21T11:03:29;101885.19;;;25.84;46.55
71778;BME280;59609;52.430;4.668;2023-05-21T11:05:56;101881.47;;;25.42;47.55
71778;BME280;59609;52.430;4.668;2023-05-21T11:08:24;101886.31;;;25.24;48.60
71778;BME280;59609;52.430;4.668;2023-05-21T11:10:50;101886.50;;;25.10;48.74
71778;BME280;59609;52.430;4.668;2023-05-21T11:13:15;101876.59;;;25.20;49.32
71778;BME280;59609;52.430;4.668;2023-05-21T11:16:01;101879.13;;;25.57;47.47
71778;BME280;59609;52.430;4.668;2023-05-21T11:21:11;101885.47;;;25.53;46.30
71778;BME280;59609;52.430;4.668;2023-05-21T11:26:22;101885.19;;;25.84;47.63
71778;BME280;59609;52.430;4.668;2023-05-21T11:29:06;101887.00;;;25.67;45.95
71778;BME280;59609;52.430;4.668;2023-05-21T11:31:33;101882.75;;;25.99;45.75
71778;BME280;59609;52.430;4.668;2023-05-21T11:34:22;101877.25;;;26.04;46.30
71778;BME280;59609;52.430;4.668;2023-05-21T11:40:18;101875.13;;;25.47;47.80
71778;BME280;59609;52.430;4.668;2023-05-21T11:42:49;101872.53;;;25.16;47.38
71778;BME280;59609;52.430;4.668;2023-05-21T11:45:19;101854.41;;;24.93;47.79
71778;BME280;59609;52.430;4.668;2023-05-21T11:47:46;101867.25;;;24.89;49.53
71778;BME280;59609;52.430;4.668;2023-05-21T11:50:13;101869.56;;;25.10;48.02
71778;BME280;59609;52.430;4.668;2023-05-21T11:52:40;101864.50;;;25.01;48.03
71778;BME280;59609;52.430;4.668;2023-05-21T11:55:06;101852.97;;;25.62;46.32
71778;BME280;59609;52.430;4.668;2023-05-21T11:57:32;101853.34;;;25.66;46.38
71778;BME280;59609;52.430;4.668;2023-05-21T12:00:00;101848.38;;;26.02;45.21
71778;BME280;59609;52.430;4.668;2023-05-21T12:02:30;101849.97;;;26.56;44.73
71778;BME280;59609;52.430;4.668;2023-05-21T12:04:56;101849.31;;;26.89;44.87
71778;BME280;59609;52.430;4.668;2023-05-21T12:07:25;101839.63;;;26.85;43.26
71778;BME280;59609;52.430;4.668;2023-05-21T12:09:52;101842.09;;;26.12;44.06
71778;BME280;59609;52.430;4.668;2023-05-21T12:12:20;101841.88;;;25.90;44.25
71778;BME280;59609;52.430;4.668;2023-05-21T12:14:47;101829.06;;;25.65;44.12
71778;BME280;59609;52.430;4.668;2023-05-21T12:17:17;101823.94;;;25.96;44.73
71778;BME280;59609;52.430;4.668;2023-05-21T12:19:44;101823.75;;;25.56;44.12
71778;BME280;59609;52.430;4.668;2023-05-21T12:22:11;101828.84;;;25.89;44.23
71778;BME280;59609;52.430;4.668;2023-05-21T12:24:37;101822.69;;;26.16;43.05
71778;BME280;59609;52.430;4.668;2023-05-21T12:27:05;101811.41;;;26.04;44.19
71778;BME280;59609;52.430;4.668;2023-05-21T12:29:35;101824.47;;;26.28;43.11
71778;BME280;59609;52.430;4.668;2023-05-21T12:32:03;101815.97;;;26.40;42.30
71778;BME280;59609;52.430;4.668;2023-05-21T12:34:40;101826.28;;;26.46;43.46
71778;BME280;59609;52.430;4.668;2023-05-21T12:39:52;101816.63;;;26.70;43.05
71778;BME280;59609;52.430;4.668;2023-05-21T12:42:28;101810.91;;;26.07;42.97
71778;BME280;59609;52.430;4.668;2023-05-21T12:45:09;101809.28;;;25.23;44.49
71778;BME280;59609;52.430;4.668;2023-05-21T12:47:35;101815.78;;;25.53;44.15
71778;BME280;59609;52.430;4.668;2023-05-21T12:50:02;101805.88;;;25.97;43.66
71778;BME280;59609;52.430;4.668;2023-05-21T12:52:28;101807.22;;;26.06;42.98
71778;BME280;59609;52.430;4.668;2023-05-21T12:54:57;101816.44;;;26.13;43.46
71778;BME280;59609;52.430;4.668;2023-05-21T12:57:33;101814.84;;;25.71;44.83
71778;BME280;59609;52.430;4.668;2023-05-21T13:00:00;101809.84;;;26.31;43.81
71778;BME280;59609;52.430;4.668;2023-05-21T13:02:28;101811.28;;;26.10;44.07
71778;BME280;59609;52.430;4.668;2023-05-21T13:04:55;101801.84;;;25.82;44.25
71778;BME280;59609;52.430;4.668;2023-05-21T13:07:21;101804.03;;;26.03;44.57
71778;BME280;59609;52.430;4.668;2023-05-21T13:09:47;101807.13;;;26.01;44.11
71778;BME280;59609;52.430;4.668;2023-05-21T13:12:14;101800.84;;;26.23;45.05
71778;BME280;59609;52.430;4.668;2023-05-21T13:14:39;101803.19;;;26.14;44.29
71778;BME280;59609;52.430;4.668;2023-05-21T13:17:05;101805.78;;;26.27;44.10
71778;BME280;59609;52.430;4.668;2023-05-21T13:19:30;101799.69;;;25.66;45.26